Time;durP1;ratioP1;P1;durP2;ratioP2;P2;SDS_P1;SDS_P2;PMS_P1;PMS_P2;Temp;Humidity;BMP_temperature;BMP_pressure;BME280_temperature;BME280_humidity;BME280_pressure;Samples;Min_cycle;Max_cycle;Signal;HPM_P1;HPM_P2
2022/02/19 00:02:16;;;;;;;3.73;1.90;;;;;;;5.75;49.41;97925.22;5038801;28;20081;-72
2022/02/19 00:04:42;;;;;;;3.57;1.90;;;;;;;5.83;49.79;97933.16;5039561;28;20122;-72
2022/02/19 00:07:08;;;;;;;2.07;1.80;;;;;;;5.75;49.76;97934.97;5022737;28;20420;-72
2022/02/19 00:09:35;;;;;;;5.20;1.80;;;;;;;5.74;49.96;97931.50;5055813;28;20496;-72
2022/02/19 00:12:02;;;;;;;5.20;2.10;;;;;;;5.74;50.00;97942.03;5072734;28;20052;-72
2022/02/19 00:14:27;;;;;;;2.53;1.80;;;;;;;5.63;50.55;97937.13;5022985;28;20462;-72
2022/02/19 00:16:53;;;;;;;4.07;1.80;;;;;;;5.65;50.48;97937.78;5021036;28;20044;-71
2022/02/19 00:19:20;;;;;;;2.70;1.83;;;;;;;5.79;50.41;97944.16;5037363;28;20044;-72
2022/02/19 00:21:47;;;;;;;7.57;1.97;;;;;;;5.81;50.52;97948.25;5037915;28;20691;-73
2022/02/19 00:24:12;;;;;;;3.60;1.87;;;;;;;5.91;50.30;97942.84;5037601;28;20416;-73
2022/02/19 00:26:40;;;;;;;7.03;2.03;;;;;;;6.16;49.75;97947.03;5053666;28;20051;-75
2022/02/19 00:29:07;;;;;;;3.27;1.73;;;;;;;6.11;49.48;97944.91;5038042;28;20558;-75
2022/02/19 00:31:33;;;;;;;2.70;2.00;;;;;;;6.20;49.54;97949.16;5038888;28;20044;-72
2022/02/19 00:34:01;;;;;;;2.90;2.10;;;;;;;6.10;48.96;97922.19;5056550;28;20058;-74
2022/02/19 00:36:27;;;;;;;2.67;2.00;;;;;;;6.25;49.34;97949.47;5056347;28;20084;-74
2022/02/19 00:38:53;;;;;;;4.33;1.93;;;;;;;6.22;49.37;97944.53;5039209;28;20672;-75
2022/02/19 00:41:19;;;;;;;2.30;1.77;;;;;;;6.22;49.38;97956.88;5056041;28;20063;-75
2022/02/19 00:43:45;;;;;;;3.93;1.90;;;;;;;6.23;49.66;97950.59;5089313;28;20488;-73
2022/02/19 00:46:11;;;;;;;3.43;2.10;;;;;;;6.32;49.86;97939.06;5072606;28;20085;-74
2022/02/19 00:48:37;;;;;;;3.57;1.97;;;;;;;6.23;49.89;97938.25;5055837;28;20139;-74
2022/02/19 00:51:04;;;;;;;2.63;1.80;;;;;;;6.10;50.69;97955.63;5055663;28;20073;-74
2022/02/19 00:53:33;;;;;;;2.27;1.60;;;;;;;6.02;50.16;97938.03;5056143;28;20566;-73
2022/02/19 00:55:59;;;;;;;4.73;2.00;;;;;;;6.41;49.55;97941.47;5055832;28;20139;-72
2022/02/19 00:58:25;;;;;;;2.80;2.03;;;;;;;6.46;49.48;97944.41;5022452;28;20062;-74
2022/02/19 01:00:52;;;;;;;2.83;1.80;;;;;;;6.57;49.28;97933.47;5038625;28;20115;-74
2022/02/19 01:03:26;;;;;;;5.27;1.93;;;;;;;6.55;49.28;97938.09;5040066;28;20512;-74
2022/02/19 01:05:51;;;;;;;3.53;1.90;;;;;;;6.53;49.23;97937.44;5020571;28;20079;-74
2022/02/19 01:08:17;;;;;;;2.23;1.70;;;;;;;6.59;49.20;97931.47;5020505;28;20055;-75
2022/02/19 01:10:44;;;;;;;4.57;2.00;;;;;;;6.66;48.96;97928.94;5036989;28;20047;-75
2022/02/19 01:13:11;;;;;;;2.73;1.90;;;;;;;6.67;49.13;97933.25;5054356;28;20415;-75
2022/02/19 01:15:37;;;;;;;4.17;1.90;;;;;;;6.53;49.23;97926.88;5037463;28;20039;-76
2022/02/19 01:18:03;;;;;;;1.60;1.50;;;;;;;6.28;49.85;97922.75;5054632;28;20139;-75
2022/02/19 01:20:29;;;;;;;5.50;1.97;;;;;;;6.16;50.41;97912.78;5055912;28;20072;-74
2022/02/19 01:22:55;;;;;;;4.93;1.80;;;;;;;6.20;50.33;97917.53;5038872;28;20464;-73
2022/02/19 01:25:21;;;;;;;4.53;2.00;;;;;;;6.28;50.06;97920.13;5055607;28;20044;-72
2022/02/19 01:27:54;;;;;;;3.47;1.83;;;;;;;6.20;50.39;97920.16;5056616;28;20047;-74
2022/02/19 01:30:20;;;;;;;3.60;2.00;;;;;;;6.20;50.30;97909.63;5056601;28;20059;-74
2022/02/19 01:32:48;;;;;;;4.30;2.20;;;;;;;6.12;50.70;97914.91;5072121;28;20050;-74
2022/02/19 01:35:15;;;;;;;4.70;2.30;;;;;;;6.17;50.67;97920.50;5039238;28;20047;-74
2022/02/19 01:37:41;;;;;;;3.67;2.23;;;;;;;6.11;50.41;97910.66;5056947;28;20065;-74
2022/02/19 01:40:08;;;;;;;4.23;2.20;;;;;;;6.14;50.94;97912.94;5042629;28;20474;-74
2022/02/19 01:42:39;;;;;;;4.70;2.40;;;;;;;6.03;51.16;97912.47;5059587;28;20574;-75
2022/02/19 01:45:07;;;;;;;3.87;2.20;;;;;;;6.04;51.49;97899.13;5043352;28;20051;-73
2022/02/19 01:47:36;;;;;;;4.00;2.63;;;;;;;5.85;51.64;97889.03;5059615;28;20147;-73
2022/02/19 01:50:03;;;;;;;5.90;2.47;;;;;;;5.88;51.90;97895.75;5059519;28;20040;-77
2022/02/19 01:52:31;;;;;;;6.60;2.40;;;;;;;5.81;52.17;97913.22;5058911;28;20097;-72
2022/02/19 01:54:58;;;;;;;3.30;2.47;;;;;;;5.86;51.96;97919.63;5059013;28;20048;-73
2022/02/19 01:57:38;;;;;;;3.90;2.50;;;;;;;5.78;52.13;97898.56;5046201;28;20044;-74
2022/02/19 02:00:15;;;;;;;3.27;2.50;;;;;;;5.94;52.29;97897.72;5076976;28;20062;-72
2022/02/19 02:02:45;;;;;;;4.03;2.30;;;;;;;5.77;52.19;97912.72;5074443;28;20062;-72
2022/02/19 02:05:37;;;;;;;3.83;2.40;;;;;;;5.95;52.21;97904.63;5075221;28;20062;-72
2022/02/19 02:08:05;;;;;;;3.60;2.40;;;;;;;5.77;52.19;97910.09;5059516;28;20504;-73
2022/02/19 02:10:34;;;;;;;3.13;2.27;;;;;;;5.98;52.17;97893.75;5074834;28;20054;-72
2022/02/19 02:13:01;;;;;;;3.10;2.10;;;;;;;5.93;52.04;97920.63;5058333;28;20040;-73
2022/02/19 02:15:31;;;;;;;5.03;2.37;;;;;;;5.93;52.07;97922.41;5058699;28;20128;-74
2022/02/19 02:18:19;;;;;;;5.10;2.35;;;;;;;5.75;52.45;97917.34;5078205;28;20048;-74
2022/02/19 02:20:46;;;;;;;4.17;2.70;;;;;;;5.68;52.55;97915.56;5058205;28;20286;-73
2022/02/19 02:23:17;;;;;;;6.10;2.75;;;;;;;5.73;52.45;97926.41;5042260;28;20479;-74
2022/02/19 02:25:45;;;;;;;5.60;2.97;;;;;;;5.65;52.33;97890.38;5058331;28;20044;-74
2022/02/19 02:28:13;;;;;;;4.57;2.77;;;;;;;5.57;52.61;97877.25;5074820;28;20048;-74
2022/02/19 02:30:40;;;;;;;5.33;3.07;;;;;;;5.99;52.02;97906.75;5074809;28;20135;-75
2022/02/19 02:33:16;;;;;;;6.77;3.20;;;;;;;6.04;52.33;97929.97;5042372;28;20040;-73
2022/02/19 02:35:51;;;;;;;5.40;3.10;;;;;;;6.02;51.79;97887.97;5058322;28;20569;-72
2022/02/19 02:38:25;;;;;;;12.10;4.00;;;;;;;5.58;52.42;97884.13;5074457;28;20050;-73
2022/02/19 02:40:51;;;;;;;5.10;3.33;;;;;;;5.63;52.56;97905.53;5041316;28;20051;-72
2022/02/19 02:43:20;;;;;;;9.17;4.17;;;;;;;5.68;52.63;97900.59;5041698;28;20047;-73
2022/02/19 02:45:48;;;;;;;6.07;3.47;;;;;;;5.55;53.00;97897.66;5090988;28;20062;-73
2022/02/19 02:48:17;;;;;;;6.13;3.30;;;;;;;5.70;52.76;97911.78;5041626;28;20105;-72
2022/02/19 02:50:44;;;;;;;5.73;3.13;;;;;;;5.77;52.68;97923.25;5039917;28;20092;-72
2022/02/19 02:53:10;;;;;;;4.17;2.97;;;;;;;5.84;52.34;97916.38;5072419;28;20522;-72
2022/02/19 02:55:38;;;;;;;3.37;2.80;;;;;;;5.68;52.33;97903.22;5057650;28;20040;-73
2022/02/19 02:58:04;;;;;;;5.80;3.57;;;;;;;6.05;51.87;97906.06;5040642;28;20051;-74
2022/02/19 03:00:30;;;;;;;6.60;3.43;;;;;;;6.15;51.47;97905.88;5056210;28;20047;-74
2022/02/19 03:02:58;;;;;;;4.37;3.03;;;;;;;5.80;52.19;97909.75;5055825;28;20486;-73
2022/02/19 03:05:24;;;;;;;7.00;3.23;;;;;;;5.74;52.77;97923.59;5055339;28;20044;-74
2022/02/19 03:07:50;;;;;;;5.00;2.83;;;;;;;5.92;52.43;97891.81;5055618;28;20052;-74
2022/02/19 03:10:17;;;;;;;4.33;3.23;;;;;;;5.84;52.20;97916.38;5038584;28;20055;-73
2022/02/19 03:12:44;;;;;;;4.47;3.07;;;;;;;6.09;52.50;97891.53;5039240;28;20035;-73
2022/02/19 03:15:10;;;;;;;5.57;3.07;;;;;;;5.97;52.29;97911.38;5073993;28;20047;-72
2022/02/19 03:17:37;;;;;;;5.23;3.00;;;;;;;6.22;52.37;97919.97;5040933;28;20052;-73
2022/02/19 03:20:05;;;;;;;3.60;2.77;;;;;;;6.18;52.52;97906.31;5092366;28;20043;-72
2022/02/19 03:22:32;;;;;;;5.93;2.83;;;;;;;6.08;52.28;97904.91;5075140;28;20044;-72
2022/02/19 03:24:58;;;;;;;5.10;2.60;;;;;;;6.32;51.89;97921.41;5040704;28;20059;-74
2022/02/19 03:27:26;;;;;;;4.33;3.00;;;;;;;6.50;51.75;97895.59;5057326;28;20065;-73
2022/02/19 03:29:53;;;;;;;4.67;3.00;;;;;;;6.21;51.95;97899.91;5057190;28;20420;-74
2022/02/19 03:32:20;;;;;;;4.47;2.60;;;;;;;6.23;52.10;97898.72;5056904;28;20097;-73
2022/02/19 03:34:46;;;;;;;6.20;2.80;;;;;;;6.38;51.62;97910.16;5040420;28;20048;-75
2022/02/19 03:37:12;;;;;;;3.83;2.87;;;;;;;6.23;51.95;97887.34;5057570;28;20048;-75
2022/02/19 03:39:38;;;;;;;5.43;2.60;;;;;;;6.38;51.42;97899.63;5056950;28;20115;-72
2022/02/19 03:42:07;;;;;;;6.70;2.83;;;;;;;6.39;51.79;97887.28;5040316;28;20044;-73
2022/02/19 03:44:33;;;;;;;4.97;2.30;;;;;;;6.35;51.85;97897.34;5090245;28;20054;-71
2022/02/19 03:47:09;;;;;;;4.80;2.50;;;;;;;6.31;51.69;97905.75;5041398;28;20055;-72
2022/02/19 03:50:08;;;;;;;6.43;2.63;;;;;;;6.56;51.43;97896.72;5060696;28;20040;-72
2022/02/19 03:52:37;;;;;;;2.07;1.93;;;;;;;6.47;51.22;97888.03;5057602;28;20056;-74
2022/02/19 03:55:06;;;;;;;5.03;2.40;;;;;;;6.77;50.90;97891.63;5024278;28;20105;-74
2022/02/19 03:57:33;;;;;;;3.07;2.10;;;;;;;6.58;50.93;97900.00;5039767;28;20047;-74
2022/02/19 04:00:00;;;;;;;3.67;2.40;;;;;;;6.55;51.09;97890.63;5039536;28;20071;-74
2022/02/19 04:02:26;;;;;;;4.73;2.27;;;;;;;6.54;50.84;97894.25;5055729;28;20044;-73
2022/02/19 04:04:54;;;;;;;5.33;2.80;;;;;;;6.87;50.87;97902.75;5039827;28;20032;-74
2022/02/19 04:07:23;;;;;;;3.60;2.30;;;;;;;6.47;51.18;97898.56;5056145;28;20071;-75
2022/02/19 04:09:54;;;;;;;;;;;;;;;7.05;50.72;97926.19;5040201;28;20051;-75
2022/02/19 04:12:22;;;;;;;4.00;2.77;;;;;;;6.44;51.51;97912.09;5023578;28;19920;-75
2022/02/19 04:14:52;;;;;;;4.82;2.78;;;;;;;6.26;51.88;97916.81;5072463;28;20040;-75
2022/02/19 04:17:22;;;;;;;3.47;2.60;;;;;;;6.39;51.75;97905.72;5071568;28;20196;-75
2022/02/19 04:19:50;;;;;;;6.93;3.00;;;;;;;6.51;51.78;97894.63;5072592;28;20052;-75
2022/02/19 04:22:17;;;;;;;3.17;2.50;;;;;;;6.42;51.78;97871.09;5039709;28;20044;-76
2022/02/19 04:24:45;;;;;;;5.23;2.83;;;;;;;6.51;51.91;97889.34;5072586;28;20039;-75
2022/02/19 04:27:17;;;;;;;5.83;2.80;;;;;;;6.42;51.96;97881.66;5040123;28;20044;-74
2022/02/19 04:29:43;;;;;;;7.97;3.27;;;;;;;6.43;52.11;97894.66;5055966;28;20044;-73
2022/02/19 04:32:11;;;;;;;6.13;2.90;;;;;;;6.46;52.05;97898.75;5055664;28;20130;-74
2022/02/19 04:34:55;;;;;;;5.20;2.80;;;;;;;6.56;51.85;97883.53;5057720;28;20055;-75
2022/02/19 04:37:21;;;;;;;4.73;3.30;;;;;;;6.40;51.82;97881.81;5038779;28;20048;-74
2022/02/19 04:39:47;;;;;;;6.03;3.30;;;;;;;6.30;52.19;97877.78;5055728;28;20064;-77
2022/02/19 04:42:25;;;;;;;4.83;3.40;;;;;;;6.16;52.51;97889.03;5042754;28;20040;-75
2022/02/19 04:44:58;;;;;;;4.37;3.30;;;;;;;6.19;52.44;97878.16;5056339;28;20512;-76
2022/02/19 04:47:26;;;;;;;5.90;4.30;;;;;;;6.42;52.20;97892.19;5039725;28;20055;-75
2022/02/19 04:49:53;;;;;;;5.87;3.37;;;;;;;6.20;52.21;97917.53;5056065;28;20407;-76
2022/02/19 04:52:21;;;;;;;7.27;3.70;;;;;;;6.41;52.28;97882.66;5038943;28;20065;-76
2022/02/19 04:54:47;;;;;;;4.57;3.27;;;;;;;6.13;52.14;97894.66;5039108;28;20071;-76
2022/02/19 04:57:19;;;;;;;;;;;;;;;6.62;51.77;97878.38;5040543;28;20169;-78
2022/02/19 04:59:48;;;;;;;8.40;3.67;;;;;;;6.10;52.45;97876.56;5056440;28;19924;-76
2022/02/19 05:02:16;;;;;;;6.23;4.00;;;;;;;6.13;52.49;97887.59;5055514;28;20047;-72
2022/02/19 05:04:46;;;;;;;7.40;3.83;;;;;;;5.97;52.85;97895.56;5072433;28;20059;-74
2022/02/19 05:07:25;;;;;;;6.33;3.83;;;;;;;5.84;53.18;97861.06;5040364;28;20289;-71
2022/02/19 05:09:52;;;;;;;5.77;4.03;;;;;;;5.85;52.98;97889.03;5055380;28;20044;-70
2022/02/19 05:12:40;;;;;;;6.83;3.60;;;;;;;6.16;53.00;97903.06;5058249;28;20419;-74
2022/02/19 05:15:13;;;;;;;5.40;3.50;;;;;;;5.95;53.29;97881.72;5076145;28;20127;-69
2022/02/19 05:17:50;;;;;;;6.45;3.50;;;;;;;6.10;53.27;97918.72;5043352;28;20052;-73
2022/02/19 05:20:22;;;;;;;5.40;3.30;;;;;;;5.91;53.72;97895.41;5042572;28;20424;-71
2022/02/19 05:22:50;;;;;;;4.63;3.10;;;;;;;5.71;53.95;97908.13;5059701;28;20523;-74
2022/02/19 05:25:22;;;;;;;5.87;3.37;;;;;;;5.57;54.27;97900.94;5076075;28;20063;-76
2022/02/19 05:27:53;;;;;;;9.63;3.63;;;;;;;5.63;54.18;97925.78;5059621;28;20051;-80
2022/02/19 05:30:19;;;;;;;8.47;3.73;;;;;;;5.52;54.39;97892.72;5042983;28;20177;-74
2022/02/19 05:33:04;;;;;;;4.63;3.17;;;;;;;5.58;54.05;97901.78;5047294;28;20618;-74
2022/02/19 05:35:33;;;;;;;5.87;3.33;;;;;;;5.49;53.74;97852.78;5076115;28;20040;-74
2022/02/19 05:38:00;;;;;;;4.93;3.40;;;;;;;5.78;53.73;97897.75;5075694;28;20058;-74
2022/02/19 05:40:29;;;;;;;9.13;4.53;;;;;;;5.89;53.75;97900.06;5059724;28;20067;-74
2022/02/19 05:42:56;;;;;;;5.33;3.27;;;;;;;5.87;53.26;97905.50;5026646;28;20503;-74
2022/02/19 05:45:26;;;;;;;11.47;3.70;;;;;;;5.82;53.34;97878.00;5043340;28;20147;-74
2022/02/19 05:47:58;;;;;;;6.60;3.83;;;;;;;5.83;52.86;97864.66;5060045;28;20086;-72
2022/02/19 05:50:45;;;;;;;6.93;4.20;;;;;;;6.16;52.93;97883.78;5058352;28;20414;-73
2022/02/19 05:53:21;;;;;;;8.20;3.87;;;;;;;5.88;53.16;97882.59;5040735;28;20043;-75
2022/02/19 05:55:48;;;;;;;8.27;4.50;;;;;;;6.10;52.68;97901.13;5072793;28;20090;-71
2022/02/19 05:58:14;;;;;;;7.27;3.80;;;;;;;5.83;52.91;97864.66;5056555;28;20082;-71
2022/02/19 06:00:50;;;;;;;6.67;4.10;;;;;;;6.13;52.96;97868.31;5030534;28;20068;-71
2022/02/19 06:03:16;;;;;;;5.47;3.40;;;;;;;6.07;52.56;97879.56;5055947;28;20070;-73
2022/02/19 06:05:42;;;;;;;6.57;3.50;;;;;;;6.28;52.26;97880.59;5038340;28;20051;-68
2022/02/19 06:08:08;;;;;;;6.30;3.60;;;;;;;6.31;51.97;97877.59;5052816;28;20040;-67
2022/02/19 06:10:34;;;;;;;5.03;3.40;;;;;;;6.32;52.21;97892.41;5071231;28;20051;-67
2022/02/19 06:13:00;;;;;;;4.37;3.37;;;;;;;6.39;52.03;97892.53;5054714;28;20100;-67
2022/02/19 06:15:33;;;;;;;6.10;3.23;;;;;;;6.34;51.75;97855.31;5070384;28;20040;-68
2022/02/19 06:18:26;;;;;;;8.33;3.13;;;;;;;6.65;51.46;97907.03;5065382;28;20056;-69
2022/02/19 06:20:52;;;;;;;3.87;2.97;;;;;;;6.55;51.19;97903.00;5038270;28;20043;-67
2022/02/19 06:23:38;;;;;;;6.30;3.17;;;;;;;6.52;51.06;97885.69;5073305;28;20127;-70
2022/02/19 06:26:04;;;;;;;3.80;3.10;;;;;;;6.38;51.31;97878.53;5054740;28;20143;-67
2022/02/19 06:28:34;;;;;;;;;;;;;;;7.04;50.14;97887.63;5072497;28;20075;-69
2022/02/19 06:31:01;;;;;;;9.17;2.60;;;;;;;6.42;51.23;97898.28;5053725;28;19931;-68
2022/02/19 06:33:30;;;;;;;8.73;3.07;;;;;;;6.51;50.84;97865.59;5055588;28;20040;-72
2022/02/19 06:36:00;;;;;;;3.93;3.13;;;;;;;6.67;50.43;97860.19;5038822;28;20040;-69
2022/02/19 06:38:29;;;;;;;5.10;3.10;;;;;;;6.78;50.33;97867.69;5054911;28;20760;-69
2022/02/19 06:40:59;;;;;;;8.10;3.20;;;;;;;6.64;50.42;97859.75;5038320;28;20040;-70
2022/02/19 06:43:37;;;;;;;9.53;3.90;;;;;;;6.66;50.36;97861.19;5025453;28;20105;-71
2022/02/19 06:46:04;;;;;;;5.93;3.90;;;;;;;6.85;50.11;97868.66;5054894;28;20040;-71
2022/02/19 06:48:29;;;;;;;8.03;3.47;;;;;;;6.93;49.53;97871.19;5054503;28;20044;-68
2022/02/19 06:50:56;;;;;;;5.53;3.37;;;;;;;6.95;49.38;97864.94;5070774;28;20058;-69
2022/02/19 06:53:22;;;;;;;6.10;3.70;;;;;;;7.20;49.11;97856.59;5054705;28;20032;-72
2022/02/19 06:55:48;;;;;;;6.07;3.17;;;;;;;7.16;48.80;97870.34;5054477;28;20386;-72
2022/02/19 06:58:16;;;;;;;5.53;2.90;;;;;;;7.00;49.12;97868.66;5037827;28;20055;-70
2022/02/19 07:00:53;;;;;;;5.50;3.23;;;;;;;7.19;48.86;97880.53;5071244;28;20051;-73
2022/02/19 07:03:21;;;;;;;6.30;3.10;;;;;;;7.14;48.86;97873.16;5053939;28;20047;-74
2022/02/19 07:05:52;;;;;;;4.43;3.13;;;;;;;7.26;48.68;97870.91;5054361;28;20055;-70
2022/02/19 07:08:38;;;;;;;7.10;3.13;;;;;;;7.19;48.53;97884.00;5056929;28;20059;-75
2022/02/19 07:11:04;;;;;;;6.40;3.70;;;;;;;7.11;48.41;97844.47;5020091;28;20054;-75
2022/02/19 07:13:30;;;;;;;5.30;2.77;;;;;;;7.44;48.34;97876.66;5052484;28;20070;-70
2022/02/19 07:15:56;;;;;;;6.40;2.93;;;;;;;7.30;48.34;97859.81;5052369;28;20048;-70
2022/02/19 07:18:39;;;;;;;5.83;3.37;;;;;;;7.46;48.25;97887.84;5054500;28;20105;-68
2022/02/19 07:21:10;;;;;;;2.97;2.38;;;;;;;7.55;47.88;97881.50;5068952;28;20043;-72
2022/02/19 07:23:37;;;;;;;4.03;2.87;;;;;;;7.50;48.00;97878.59;5052125;28;20056;-72
2022/02/19 07:26:05;;;;;;;8.20;3.23;;;;;;;7.50;48.04;97868.00;5053195;28;20044;-68
2022/02/19 07:28:34;;;;;;;5.13;3.00;;;;;;;7.50;47.95;97852.16;5054587;28;20101;-68
2022/02/19 07:31:01;;;;;;;4.53;3.20;;;;;;;7.44;47.77;97868.75;5035672;28;20047;-68
2022/02/19 07:33:27;;;;;;;8.00;2.90;;;;;;;7.76;47.19;97856.00;5054248;28;20047;-68
2022/02/19 07:35:58;;;;;;;6.18;3.00;;;;;;;7.81;47.19;97842.22;5054012;28;20044;-68
2022/02/19 07:38:26;;;;;;;6.07;3.10;;;;;;;8.10;46.48;97826.31;5054000;28;20040;-69
2022/02/19 07:40:53;;;;;;;3.53;2.35;;;;;;;8.40;45.43;97826.06;5070784;28;20130;-69
2022/02/19 07:43:26;;;;;;;4.57;2.45;;;;;;;8.43;45.53;97815.09;5054918;28;20194;-69
2022/02/19 07:46:19;;;;;;;4.57;2.63;;;;;;;8.49;44.90;97810.88;5069974;28;20052;-68
2022/02/19 07:58:19;;;;;;;7.97;2.70;;;;;;;8.48;44.63;97761.63;5069668;28;20043;-67
2022/02/19 08:00:50;;;;;;;3.30;2.60;;;;;;;8.50;45.35;97781.59;5052763;28;20138;-69
2022/02/19 08:03:16;;;;;;;6.63;2.30;;;;;;;8.30;45.47;97790.34;5053004;28;20047;-68
2022/02/19 08:05:45;;;;;;;6.25;2.42;;;;;;;8.45;45.01;97772.59;5070450;28;20174;-69
2022/02/19 08:08:12;;;;;;;11.15;2.47;;;;;;;8.59;44.59;97801.59;5037085;28;20035;-70
2022/02/19 08:10:39;;;;;;;4.72;2.35;;;;;;;9.02;43.57;97762.66;5069804;28;20078;-69
2022/02/19 08:13:08;;;;;;;4.28;1.98;;;;;;;9.96;41.90;97801.69;5053318;28;20083;-68
2022/02/19 08:15:35;;;;;;;2.08;1.88;;;;;;;10.07;40.86;97737.50;5087505;28;20040;-69
2022/02/19 08:18:02;;;;;;;2.08;1.70;;;;;;;9.89;41.33;97769.00;5069318;28;20047;-68
2022/02/19 08:20:28;;;;;;;3.45;1.90;;;;;;;9.24;42.34;97766.06;5069762;28;20130;-70
2022/02/19 08:22:54;;;;;;;5.28;2.25;;;;;;;9.04;42.82;97768.56;5052967;28;20469;-69
2022/02/19 08:25:20;;;;;;;3.50;1.83;;;;;;;8.89;42.73;97753.81;5036222;28;20040;-69
2022/02/19 08:27:46;;;;;;;3.05;1.83;;;;;;;8.75;43.35;97760.81;5069708;28;20081;-71
2022/02/19 08:30:11;;;;;;;3.75;2.25;;;;;;;8.70;43.10;97771.19;5051023;28;20040;-69
2022/02/19 08:32:37;;;;;;;5.38;1.90;;;;;;;8.87;43.19;97727.56;5069782;28;20089;-69
2022/02/19 08:35:03;;;;;;;3.17;2.10;;;;;;;9.02;42.82;97732.72;5036281;28;20493;-75
2022/02/19 08:37:31;;;;;;;3.05;2.20;;;;;;;8.68;43.03;97759.13;5020134;28;20176;-74
2022/02/19 08:39:57;;;;;;;2.97;1.80;;;;;;;8.99;42.68;97717.22;5086485;28;20494;-77
2022/02/19 08:42:23;;;;;;;3.53;2.17;;;;;;;8.87;42.76;97703.72;5036183;28;20066;-73
2022/02/19 08:44:49;;;;;;;3.08;1.90;;;;;;;8.66;42.82;97701.13;5034931;28;20043;-78
2022/02/19 08:47:15;;;;;;;3.45;2.10;;;;;;;8.89;42.72;97672.56;5069380;28;20093;-73
2022/02/19 08:49:41;;;;;;;4.75;2.10;;;;;;;8.98;42.75;97694.41;5055461;28;20105;-76
2022/02/19 08:52:07;;;;;;;5.50;2.38;;;;;;;8.70;43.28;97741.25;5055253;28;20267;-73
2022/02/19 08:54:35;;;;;;;3.05;2.13;;;;;;;8.69;43.22;97713.16;5055042;28;20050;-73
2022/02/19 08:57:02;;;;;;;3.47;2.25;;;;;;;8.84;43.11;97674.97;5055068;28;20102;-71
2022/02/19 08:59:27;;;;;;;2.90;1.60;;;;;;;8.51;43.35;97666.00;5057058;28;20044;-72
2022/02/19 09:01:53;;;;;;;2.67;1.85;;;;;;;8.32;43.55;97659.56;5056329;28;20050;-69
2022/02/19 09:04:19;;;;;;;2.40;1.70;;;;;;;8.48;43.66;97703.44;5040323;28;20036;-72
2022/02/19 09:06:45;;;;;;;2.50;1.65;;;;;;;8.14;43.96;97648.63;5063389;28;20228;-69
2022/02/19 09:09:12;;;;;;;3.55;1.77;;;;;;;8.30;43.72;97664.22;5059478;28;20169;-67
2022/02/19 09:11:37;;;;;;;3.50;1.35;;;;;;;8.15;43.33;97626.44;5094020;28;20522;-66
2022/02/19 09:14:04;;;;;;;4.15;1.80;;;;;;;8.26;43.86;97619.84;5042642;28;20158;-67
2022/02/19 09:16:32;;;;;;;3.05;1.77;;;;;;;8.36;43.29;97615.06;5076351;28;20043;-67
2022/02/19 09:18:58;;;;;;;3.22;1.67;;;;;;;8.25;43.29;97632.28;5076386;28;20066;-68
2022/02/19 09:21:25;;;;;;;2.78;1.30;;;;;;;8.35;43.44;97634.56;5059221;28;20510;-68
2022/02/19 09:23:51;;;;;;;2.05;1.58;;;;;;;8.37;43.04;97563.78;5093699;28;20050;-67
2022/02/19 09:26:17;;;;;;;3.15;1.67;;;;;;;8.55;43.31;97603.75;5059098;28;20403;-68
2022/02/19 09:28:43;;;;;;;6.82;2.00;;;;;;;8.48;43.35;97611.69;5041882;28;20120;-67
2022/02/19 09:31:09;;;;;;;3.83;1.60;;;;;;;8.39;43.12;97625.25;5058757;28;20082;-66
2022/02/19 09:33:35;;;;;;;3.15;1.70;;;;;;;8.50;43.34;97599.06;5092116;28;20047;-66
2022/02/19 09:36:01;;;;;;;2.38;1.50;;;;;;;8.63;43.08;97585.09;5058519;28;20046;-67
2022/02/19 09:38:27;;;;;;;3.20;1.40;;;;;;;8.44;43.12;97623.63;5092680;28;20036;-66
2022/02/19 09:40:55;;;;;;;3.70;1.55;;;;;;;8.39;43.01;97575.00;5039683;28;20412;-67
2022/02/19 09:43:20;;;;;;;2.35;1.75;;;;;;;8.31;43.01;97602.41;5039518;28;20086;-66
2022/02/19 09:45:47;;;;;;;3.65;1.88;;;;;;;8.46;43.38;97584.59;5072755;28;20522;-66
2022/02/19 09:48:15;;;;;;;1.98;1.40;;;;;;;8.14;43.25;97582.53;5072353;28;20055;-67
2022/02/19 09:50:43;;;;;;;2.53;1.50;;;;;;;8.34;43.32;97572.94;5039342;28;20047;-67
2022/02/19 09:53:09;;;;;;;6.18;1.90;;;;;;;8.07;43.80;97570.28;5090930;28;20541;-67
2022/02/19 09:55:36;;;;;;;3.55;2.15;;;;;;;8.31;43.18;97551.34;5074622;28;20081;-68
2022/02/19 09:58:02;;;;;;;5.97;1.85;;;;;;;8.53;42.83;97589.94;5092724;28;20448;-68
2022/02/19 10:00:39;;;;;;;6.55;1.80;;;;;;;8.78;42.97;97569.09;5074964;28;20036;-66
2022/02/19 10:03:17;;;;;;;3.88;2.08;;;;;;;8.57;43.01;97560.25;5074905;28;20043;-66
2022/02/19 10:05:43;;;;;;;2.65;1.75;;;;;;;8.03;44.11;97553.97;5092594;28;20055;-66
2022/02/19 10:08:10;;;;;;;3.53;1.98;;;;;;;8.03;45.12;97637.72;5074557;28;20512;-66
2022/02/19 10:10:38;;;;;;;3.58;1.92;;;;;;;8.19;45.95;97539.66;5074695;28;20087;-66
2022/02/19 10:13:05;;;;;;;3.53;2.10;;;;;;;7.75;47.11;97599.91;5076920;28;20043;-65
2022/02/19 10:16:00;;;;;;;5.78;1.90;;;;;;;8.06;47.39;97571.25;5056486;28;20038;-66
2022/02/19 10:18:34;;;;;;;5.20;2.20;;;;;;;7.65;48.44;97535.97;5059880;28;20054;-65
2022/02/19 10:21:10;;;;;;;3.13;1.77;;;;;;;7.79;49.15;97559.69;5073063;28;20032;-66
2022/02/19 10:23:42;;;;;;;5.33;2.30;;;;;;;7.62;49.76;97549.56;5090201;28;20053;-65
2022/02/19 10:26:07;;;;;;;;;;;;;;;7.63;49.95;97561.75;5090389;28;20096;-66
2022/02/19 10:28:34;;;;;;;2.73;1.90;;;;;;;7.20;50.93;97552.19;5057544;28;20109;-66
2022/02/19 10:31:29;;;;;;;5.77;2.10;;;;;;;7.40;51.52;97524.16;5109505;28;20134;-65
2022/02/19 10:34:14;;;;;;;3.13;2.30;;;;;;;7.18;51.95;97477.69;5092325;28;20179;-66
2022/02/19 10:36:41;;;;;;;9.13;2.53;;;;;;;7.10;52.50;97498.91;5109395;28;20058;-66
2022/02/19 10:39:08;;;;;;;4.77;2.10;;;;;;;7.01;52.68;97506.16;5108953;28;20039;-65
2022/02/19 10:41:35;;;;;;;7.13;2.73;;;;;;;6.85;53.66;97483.47;5110147;28;20112;-66
2022/02/19 10:44:21;;;;;;;7.93;2.80;;;;;;;7.26;53.48;97472.28;5092071;28;20044;-66
2022/02/19 10:46:47;;;;;;;7.73;2.70;;;;;;;6.82;53.81;97494.38;5091247;28;20071;-66
2022/02/19 10:49:13;;;;;;;4.87;2.80;;;;;;;6.76;54.26;97468.72;5091085;28;20130;-66
2022/02/19 10:51:40;;;;;;;3.77;2.40;;;;;;;6.54;54.17;97411.69;5107750;28;20126;-68
2022/02/19 10:54:08;;;;;;;5.67;2.63;;;;;;;7.12;54.09;97423.03;5104272;28;20105;-66
2022/02/19 10:56:35;;;;;;;3.63;3.20;;;;;;;7.04;54.33;97434.53;5073111;28;20039;-66
2022/02/19 10:59:09;;;;;;;6.63;3.70;;;;;;;7.11;54.46;97419.56;5057259;28;20040;-66
2022/02/19 11:01:41;;;;;;;7.07;4.00;;;;;;;7.17;54.58;97402.13;5089612;28;20044;-67
2022/02/19 11:04:08;;;;;;;11.23;3.90;;;;;;;6.93;54.57;97406.00;5072560;28;20051;-66
2022/02/19 11:06:34;;;;;;;10.37;4.63;;;;;;;6.83;55.42;97422.16;5089962;28;20112;-67
2022/02/19 11:09:05;;;;;;;9.87;3.90;;;;;;;7.09;54.98;97381.97;5089986;28;20047;-66
2022/02/19 11:11:41;;;;;;;10.07;4.13;;;;;;;7.14;54.84;97371.66;5071672;28;20441;-68
2022/02/19 11:14:07;;;;;;;9.83;4.07;;;;;;;6.67;55.51;97377.53;5089195;28;20052;-66
2022/02/19 11:16:34;;;;;;;9.50;4.00;;;;;;;6.69;56.01;97361.53;5089676;28;20047;-71
2022/02/19 11:19:01;;;;;;;12.03;5.37;;;;;;;7.11;55.68;97343.00;5108242;28;20044;-70
2022/02/19 11:21:27;;;;;;;10.47;5.93;;;;;;;7.10;55.06;97337.94;5055543;28;20134;-67
2022/02/19 11:23:54;;;;;;;17.57;6.13;;;;;;;7.05;55.20;97341.16;5068686;28;20047;-68
2022/02/19 11:26:22;;;;;;;14.27;5.53;;;;;;;6.91;55.40;97331.50;5034578;28;20036;-70
2022/02/19 11:28:49;;;;;;;12.87;6.60;;;;;;;6.67;56.30;97332.69;5061398;28;20060;-70
2022/02/19 11:31:20;;;;;;;14.40;7.03;;;;;;;6.73;56.94;97305.56;5038780;28;20101;-69
2022/02/19 11:33:49;;;;;;;16.63;6.10;;;;;;;6.61;57.05;97301.81;5059813;28;20119;-69
2022/02/19 11:36:15;;;;;;;9.30;5.03;;;;;;;6.51;56.40;97300.50;5093367;28;20579;-67
2022/02/19 11:38:53;;;;;;;10.27;6.00;;;;;;;6.65;56.31;97258.25;5096828;28;20043;-68
2022/02/19 11:41:43;;;;;;;12.30;6.63;;;;;;;6.64;56.73;97282.19;5089259;28;20075;-69
2022/02/19 11:44:15;;;;;;;10.90;5.70;;;;;;;6.66;57.16;97288.88;5058672;28;20040;-68
2022/02/19 11:46:41;;;;;;;12.60;6.00;;;;;;;6.36;57.36;97268.13;5058518;28;20051;-69
2022/02/19 11:49:18;;;;;;;11.53;6.00;;;;;;;6.44;57.14;97279.34;5042135;28;20108;-69
2022/02/19 11:51:44;;;;;;;13.00;6.27;;;;;;;6.15;57.42;97320.84;5042074;28;20077;-70
2022/02/19 11:54:10;;;;;;;14.93;6.87;;;;;;;6.11;57.69;97277.41;5058199;28;20044;-72
2022/02/19 11:56:38;;;;;;;11.33;5.77;;;;;;;6.15;57.78;97247.06;5058459;28;20539;-69
2022/02/19 11:59:06;;;;;;;11.67;6.40;;;;;;;6.37;57.88;97273.22;5075852;28;20047;-69
2022/02/19 12:01:33;;;;;;;13.13;6.67;;;;;;;5.98;58.51;97288.63;5057368;28;20039;-69